KDAY Airport Diagram

We have created a template for each of the higher traffic airports in the vZID airspace. They include KCMH, KCRW, KCVG, KDAY, KIND, KLEX and KSDF. You wil find usefull information including the airport diagram, weather, and specific airport procedures.

KDAY Weather

[Source: ADDS]
METAR
KDAY 191419Z 26007KT 3SM BR OVC005 08/07 A3006 RMK AO2 T00780067 =
TAF
KDAY 191406Z 1914/2012 29007KT 3SM BR OVC003 FM191500 25006KT P6SM OVC010 FM191600 25006KT P6SM BKN025 FM191700 25005KT P6SM FEW025 SCT040 FM192000 25006KT P6SM FEW025 FEW150 FM200500 00000KT P6SM SCT130 FM201100 12003KT P6SM SCT030 =

DAY Operations

Calm Wind Configuration is runways 24L and 24R

Runway 24L typically departs south and west

Runway 24R typicall departs north and east

 

JSN Epic template designed by JoomlaShine.com